sensor_id;sensor_type;location;lat;lon;timestamp;P1;durP1;ratioP1;P2;durP2;ratioP2
2061;SDS011;11070;51.336;12.340;2022-07-17T00:00:46;3.37;;;1.90;;
2061;SDS011;11070;51.336;12.340;2022-07-17T00:03:12;6.53;;;1.90;;
2061;SDS011;11070;51.336;12.340;2022-07-17T00:05:40;4.15;;;1.67;;
2061;SDS011;11070;51.336;12.340;2022-07-17T00:08:06;4.97;;;1.83;;
2061;SDS011;11070;51.336;12.340;2022-07-17T00:10:37;3.42;;;1.80;;
2061;SDS011;11070;51.336;12.340;2022-07-17T00:13:06;1.92;;;1.50;;
2061;SDS011;11070;51.336;12.340;2022-07-17T00:15:32;1.60;;;1.40;;
2061;SDS011;11070;51.336;12.340;2022-07-17T00:17:58;2.85;;;1.50;;
2061;SDS011;11070;51.336;12.340;2022-07-17T00:20:24;2.47;;;1.40;;
2061;SDS011;11070;51.336;12.340;2022-07-17T00:22:53;3.03;;;1.63;;
2061;SDS011;11070;51.336;12.340;2022-07-17T00:25:23;1.88;;;1.58;;
2061;SDS011;11070;51.336;12.340;2022-07-17T00:27:49;4.05;;;1.50;;
2061;SDS011;11070;51.336;12.340;2022-07-17T00:30:15;3.33;;;1.60;;
2061;SDS011;11070;51.336;12.340;2022-07-17T00:32:41;2.60;;;1.70;;
2061;SDS011;11070;51.336;12.340;2022-07-17T00:35:07;2.03;;;1.30;;
2061;SDS011;11070;51.336;12.340;2022-07-17T00:37:42;3.40;;;1.35;;
2061;SDS011;11070;51.336;12.340;2022-07-17T00:40:10;2.40;;;1.35;;
2061;SDS011;11070;51.336;12.340;2022-07-17T00:42:38;3.08;;;1.75;;
2061;SDS011;11070;51.336;12.340;2022-07-17T00:45:05;2.17;;;1.58;;
2061;SDS011;11070;51.336;12.340;2022-07-17T00:47:35;2.63;;;1.33;;
2061;SDS011;11070;51.336;12.340;2022-07-17T00:50:30;2.03;;;1.52;;
2061;SDS011;11070;51.336;12.340;2022-07-17T00:53:00;4.30;;;2.10;;
2061;SDS011;11070;51.336;12.340;2022-07-17T00:55:26;2.90;;;1.57;;
2061;SDS011;11070;51.336;12.340;2022-07-17T00:57:52;3.78;;;1.58;;
2061;SDS011;11070;51.336;12.340;2022-07-17T01:00:21;4.00;;;2.10;;
2061;SDS011;11070;51.336;12.340;2022-07-17T01:02:48;4.35;;;2.00;;
2061;SDS011;11070;51.336;12.340;2022-07-17T01:05:15;4.03;;;1.92;;
2061;SDS011;11070;51.336;12.340;2022-07-17T01:07:42;5.57;;;2.45;;
2061;SDS011;11070;51.336;12.340;2022-07-17T01:10:08;3.30;;;1.80;;
2061;SDS011;11070;51.336;12.340;2022-07-17T01:12:34;6.50;;;2.03;;
2061;SDS011;11070;51.336;12.340;2022-07-17T01:15:00;5.23;;;2.07;;
2061;SDS011;11070;51.336;12.340;2022-07-17T01:17:26;3.20;;;2.00;;
2061;SDS011;11070;51.336;12.340;2022-07-17T01:19:52;2.73;;;2.17;;
2061;SDS011;11070;51.336;12.340;2022-07-17T01:22:18;3.63;;;1.90;;
2061;SDS011;11070;51.336;12.340;2022-07-17T01:24:44;2.72;;;1.67;;
2061;SDS011;11070;51.336;12.340;2022-07-17T01:27:10;6.10;;;1.80;;
2061;SDS011;11070;51.336;12.340;2022-07-17T01:29:36;9.03;;;2.33;;
2061;SDS011;11070;51.336;12.340;2022-07-17T01:32:03;3.60;;;1.90;;
2061;SDS011;11070;51.336;12.340;2022-07-17T01:34:29;2.90;;;1.77;;
2061;SDS011;11070;51.336;12.340;2022-07-17T01:36:54;3.73;;;2.10;;
2061;SDS011;11070;51.336;12.340;2022-07-17T01:39:20;2.20;;;1.50;;
2061;SDS011;11070;51.336;12.340;2022-07-17T01:42:04;3.35;;;1.60;;
2061;SDS011;11070;51.336;12.340;2022-07-17T01:44:30;4.03;;;2.37;;
2061;SDS011;11070;51.336;12.340;2022-07-17T01:46:55;6.53;;;2.00;;
2061;SDS011;11070;51.336;12.340;2022-07-17T01:49:21;5.13;;;2.00;;
2061;SDS011;11070;51.336;12.340;2022-07-17T01:51:46;3.20;;;1.50;;
2061;SDS011;11070;51.336;12.340;2022-07-17T01:54:13;2.95;;;1.73;;
2061;SDS011;11070;51.336;12.340;2022-07-17T01:56:39;3.30;;;2.03;;
2061;SDS011;11070;51.336;12.340;2022-07-17T01:59:04;3.10;;;2.10;;
2061;SDS011;11070;51.336;12.340;2022-07-17T02:01:30;3.60;;;2.43;;
2061;SDS011;11070;51.336;12.340;2022-07-17T02:03:55;3.07;;;1.80;;
2061;SDS011;11070;51.336;12.340;2022-07-17T02:06:21;3.60;;;2.15;;
2061;SDS011;11070;51.336;12.340;2022-07-17T02:08:47;2.00;;;1.80;;
2061;SDS011;11070;51.336;12.340;2022-07-17T02:11:15;3.47;;;1.73;;
2061;SDS011;11070;51.336;12.340;2022-07-17T02:13:44;3.17;;;2.00;;
2061;SDS011;11070;51.336;12.340;2022-07-17T02:16:09;1.80;;;1.70;;
2061;SDS011;11070;51.336;12.340;2022-07-17T02:18:35;4.67;;;2.47;;
2061;SDS011;11070;51.336;12.340;2022-07-17T02:21:01;5.53;;;2.20;;
2061;SDS011;11070;51.336;12.340;2022-07-17T02:23:27;3.25;;;2.78;;
2061;SDS011;11070;51.336;12.340;2022-07-17T02:25:53;4.55;;;2.72;;
2061;SDS011;11070;51.336;12.340;2022-07-17T02:28:19;3.13;;;2.70;;
2061;SDS011;11070;51.336;12.340;2022-07-17T02:30:45;5.40;;;2.47;;
2061;SDS011;11070;51.336;12.340;2022-07-17T02:33:11;4.10;;;2.80;;
2061;SDS011;11070;51.336;12.340;2022-07-17T02:35:37;5.57;;;2.87;;
2061;SDS011;11070;51.336;12.340;2022-07-17T02:38:02;4.80;;;2.90;;
2061;SDS011;11070;51.336;12.340;2022-07-17T02:40:28;5.23;;;2.53;;
2061;SDS011;11070;51.336;12.340;2022-07-17T02:42:54;5.97;;;2.70;;
2061;SDS011;11070;51.336;12.340;2022-07-17T02:45:20;9.35;;;2.58;;
2061;SDS011;11070;51.336;12.340;2022-07-17T02:47:49;5.07;;;3.58;;
2061;SDS011;11070;51.336;12.340;2022-07-17T02:50:16;3.20;;;2.90;;
2061;SDS011;11070;51.336;12.340;2022-07-17T02:52:42;2.85;;;2.58;;
2061;SDS011;11070;51.336;12.340;2022-07-17T02:55:09;4.40;;;2.83;;
2061;SDS011;11070;51.336;12.340;2022-07-17T02:57:35;2.97;;;2.70;;
2061;SDS011;11070;51.336;12.340;2022-07-17T03:00:02;9.52;;;3.22;;
2061;SDS011;11070;51.336;12.340;2022-07-17T03:02:29;3.67;;;3.35;;
2061;SDS011;11070;51.336;12.340;2022-07-17T03:04:55;5.90;;;3.10;;
2061;SDS011;11070;51.336;12.340;2022-07-17T03:07:20;4.37;;;2.97;;
2061;SDS011;11070;51.336;12.340;2022-07-17T03:09:46;4.13;;;2.93;;
2061;SDS011;11070;51.336;12.340;2022-07-17T03:12:11;6.67;;;2.97;;
2061;SDS011;11070;51.336;12.340;2022-07-17T03:14:37;4.03;;;2.47;;
2061;SDS011;11070;51.336;12.340;2022-07-17T03:17:03;3.57;;;2.67;;
2061;SDS011;11070;51.336;12.340;2022-07-17T03:19:28;4.43;;;2.97;;
2061;SDS011;11070;51.336;12.340;2022-07-17T03:21:54;4.30;;;2.87;;
2061;SDS011;11070;51.336;12.340;2022-07-17T03:24:19;3.23;;;2.93;;
2061;SDS011;11070;51.336;12.340;2022-07-17T03:26:45;4.57;;;2.30;;
2061;SDS011;11070;51.336;12.340;2022-07-17T03:29:11;4.40;;;2.73;;
2061;SDS011;11070;51.336;12.340;2022-07-17T03:31:36;2.93;;;2.53;;
2061;SDS011;11070;51.336;12.340;2022-07-17T03:34:02;7.20;;;2.70;;
2061;SDS011;11070;51.336;12.340;2022-07-17T03:36:27;4.40;;;2.80;;
2061;SDS011;11070;51.336;12.340;2022-07-17T03:38:53;3.23;;;2.93;;
2061;SDS011;11070;51.336;12.340;2022-07-17T03:41:19;3.30;;;2.67;;
2061;SDS011;11070;51.336;12.340;2022-07-17T03:43:44;5.10;;;3.00;;
2061;SDS011;11070;51.336;12.340;2022-07-17T03:46:10;5.23;;;3.03;;
2061;SDS011;11070;51.336;12.340;2022-07-17T03:48:35;4.83;;;2.87;;
2061;SDS011;11070;51.336;12.340;2022-07-17T03:51:02;8.40;;;2.55;;
2061;SDS011;11070;51.336;12.340;2022-07-17T03:53:27;3.60;;;2.50;;
2061;SDS011;11070;51.336;12.340;2022-07-17T03:55:53;3.60;;;2.63;;
2061;SDS011;11070;51.336;12.340;2022-07-17T03:58:19;2.37;;;2.17;;
2061;SDS011;11070;51.336;12.340;2022-07-17T04:00:44;5.67;;;2.80;;
2061;SDS011;11070;51.336;12.340;2022-07-17T04:03:10;8.10;;;2.60;;
2061;SDS011;11070;51.336;12.340;2022-07-17T04:05:36;2.40;;;2.20;;
2061;SDS011;11070;51.336;12.340;2022-07-17T04:08:01;6.70;;;2.70;;
2061;SDS011;11070;51.336;12.340;2022-07-17T04:10:27;3.10;;;2.73;;
2061;SDS011;11070;51.336;12.340;2022-07-17T04:12:53;5.67;;;2.80;;
2061;SDS011;11070;51.336;12.340;2022-07-17T04:15:18;4.90;;;2.33;;
2061;SDS011;11070;51.336;12.340;2022-07-17T04:18:03;4.97;;;3.47;;
2061;SDS011;11070;51.336;12.340;2022-07-17T04:20:29;3.72;;;2.92;;
2061;SDS011;11070;51.336;12.340;2022-07-17T04:22:54;3.87;;;2.70;;
2061;SDS011;11070;51.336;12.340;2022-07-17T04:25:20;3.93;;;2.70;;
2061;SDS011;11070;51.336;12.340;2022-07-17T04:27:46;4.20;;;3.00;;
2061;SDS011;11070;51.336;12.340;2022-07-17T04:30:12;4.70;;;2.83;;
2061;SDS011;11070;51.336;12.340;2022-07-17T04:32:37;7.17;;;4.07;;
2061;SDS011;11070;51.336;12.340;2022-07-17T04:35:03;6.07;;;2.93;;
2061;SDS011;11070;51.336;12.340;2022-07-17T04:37:29;5.57;;;2.83;;
2061;SDS011;11070;51.336;12.340;2022-07-17T04:39:55;5.75;;;3.03;;
2061;SDS011;11070;51.336;12.340;2022-07-17T04:42:21;3.90;;;2.80;;
2061;SDS011;11070;51.336;12.340;2022-07-17T04:44:46;6.27;;;3.20;;
2061;SDS011;11070;51.336;12.340;2022-07-17T04:47:12;5.20;;;2.97;;
2061;SDS011;11070;51.336;12.340;2022-07-17T04:49:37;3.93;;;2.67;;
2061;SDS011;11070;51.336;12.340;2022-07-17T04:52:03;6.83;;;3.00;;
2061;SDS011;11070;51.336;12.340;2022-07-17T04:54:29;4.03;;;2.50;;
2061;SDS011;11070;51.336;12.340;2022-07-17T04:56:54;4.90;;;2.90;;
2061;SDS011;11070;51.336;12.340;2022-07-17T04:59:20;4.47;;;3.00;;
2061;SDS011;11070;51.336;12.340;2022-07-17T05:01:46;3.33;;;2.70;;
2061;SDS011;11070;51.336;12.340;2022-07-17T05:04:11;5.13;;;3.13;;
2061;SDS011;11070;51.336;12.340;2022-07-17T05:06:37;4.40;;;2.67;;
2061;SDS011;11070;51.336;12.340;2022-07-17T05:09:03;5.10;;;2.73;;
2061;SDS011;11070;51.336;12.340;2022-07-17T05:11:28;6.73;;;2.60;;
2061;SDS011;11070;51.336;12.340;2022-07-17T05:13:54;3.40;;;2.33;;
2061;SDS011;11070;51.336;12.340;2022-07-17T05:16:20;5.20;;;2.40;;
2061;SDS011;11070;51.336;12.340;2022-07-17T05:18:45;4.37;;;2.83;;
2061;SDS011;11070;51.336;12.340;2022-07-17T05:21:11;4.40;;;2.17;;
2061;SDS011;11070;51.336;12.340;2022-07-17T05:23:39;5.85;;;2.60;;
2061;SDS011;11070;51.336;12.340;2022-07-17T05:26:05;2.97;;;2.40;;
2061;SDS011;11070;51.336;12.340;2022-07-17T05:28:30;3.70;;;2.50;;
2061;SDS011;11070;51.336;12.340;2022-07-17T05:30:56;2.90;;;2.60;;
2061;SDS011;11070;51.336;12.340;2022-07-17T05:33:22;3.57;;;2.23;;
2061;SDS011;11070;51.336;12.340;2022-07-17T05:35:47;5.30;;;2.73;;
2061;SDS011;11070;51.336;12.340;2022-07-17T05:38:13;3.40;;;2.47;;
2061;SDS011;11070;51.336;12.340;2022-07-17T05:40:39;4.33;;;2.33;;
2061;SDS011;11070;51.336;12.340;2022-07-17T05:43:04;3.53;;;2.37;;
2061;SDS011;11070;51.336;12.340;2022-07-17T05:45:30;6.20;;;2.20;;
2061;SDS011;11070;51.336;12.340;2022-07-17T05:47:55;6.00;;;2.13;;
2061;SDS011;11070;51.336;12.340;2022-07-17T05:50:21;4.47;;;2.17;;
2061;SDS011;11070;51.336;12.340;2022-07-17T05:52:46;3.20;;;2.03;;
2061;SDS011;11070;51.336;12.340;2022-07-17T05:55:12;1.93;;;1.83;;
2061;SDS011;11070;51.336;12.340;2022-07-17T05:57:38;3.40;;;1.90;;
2061;SDS011;11070;51.336;12.340;2022-07-17T06:00:03;2.43;;;2.10;;
2061;SDS011;11070;51.336;12.340;2022-07-17T06:02:30;1.90;;;1.80;;
2061;SDS011;11070;51.336;12.340;2022-07-17T06:04:55;6.47;;;2.27;;
2061;SDS011;11070;51.336;12.340;2022-07-17T06:07:21;4.03;;;2.03;;
2061;SDS011;11070;51.336;12.340;2022-07-17T06:09:47;3.00;;;1.80;;
2061;SDS011;11070;51.336;12.340;2022-07-17T06:12:12;2.07;;;1.73;;
2061;SDS011;11070;51.336;12.340;2022-07-17T06:14:38;3.77;;;1.90;;
2061;SDS011;11070;51.336;12.340;2022-07-17T06:17:04;3.57;;;2.27;;
2061;SDS011;11070;51.336;12.340;2022-07-17T06:19:29;4.50;;;1.90;;
2061;SDS011;11070;51.336;12.340;2022-07-17T06:21:55;5.30;;;1.85;;
2061;SDS011;11070;51.336;12.340;2022-07-17T06:24:21;3.33;;;1.60;;
2061;SDS011;11070;51.336;12.340;2022-07-17T06:26:47;3.67;;;1.67;;
2061;SDS011;11070;51.336;12.340;2022-07-17T06:29:13;4.93;;;1.67;;
2061;SDS011;11070;51.336;12.340;2022-07-17T06:31:38;3.63;;;1.90;;
2061;SDS011;11070;51.336;12.340;2022-07-17T06:34:06;3.78;;;2.00;;
2061;SDS011;11070;51.336;12.340;2022-07-17T06:36:31;2.53;;;1.83;;
2061;SDS011;11070;51.336;12.340;2022-07-17T06:38:57;5.00;;;1.60;;
2061;SDS011;11070;51.336;12.340;2022-07-17T06:41:23;6.38;;;2.10;;
2061;SDS011;11070;51.336;12.340;2022-07-17T06:43:48;4.37;;;1.70;;
2061;SDS011;11070;51.336;12.340;2022-07-17T06:46:14;5.80;;;1.70;;
2061;SDS011;11070;51.336;12.340;2022-07-17T06:48:40;2.07;;;1.30;;
2061;SDS011;11070;51.336;12.340;2022-07-17T06:51:06;2.90;;;1.63;;
2061;SDS011;11070;51.336;12.340;2022-07-17T06:53:32;2.20;;;1.60;;
2061;SDS011;11070;51.336;12.340;2022-07-17T06:55:57;3.13;;;1.80;;
2061;SDS011;11070;51.336;12.340;2022-07-17T06:58:23;1.47;;;1.37;;
2061;SDS011;11070;51.336;12.340;2022-07-17T07:00:49;5.00;;;1.80;;
2061;SDS011;11070;51.336;12.340;2022-07-17T07:03:17;5.37;;;1.70;;
2061;SDS011;11070;51.336;12.340;2022-07-17T07:05:43;2.20;;;1.60;;
2061;SDS011;11070;51.336;12.340;2022-07-17T07:08:08;3.17;;;1.63;;
2061;SDS011;11070;51.336;12.340;2022-07-17T07:10:34;2.80;;;1.80;;
2061;SDS011;11070;51.336;12.340;2022-07-17T07:13:00;3.40;;;2.10;;
2061;SDS011;11070;51.336;12.340;2022-07-17T07:15:26;4.88;;;1.83;;
2061;SDS011;11070;51.336;12.340;2022-07-17T07:17:52;7.63;;;2.00;;
2061;SDS011;11070;51.336;12.340;2022-07-17T07:20:18;2.33;;;1.60;;
2061;SDS011;11070;51.336;12.340;2022-07-17T07:22:44;3.25;;;1.55;;
2061;SDS011;11070;51.336;12.340;2022-07-17T07:25:10;1.60;;;1.50;;
2061;SDS011;11070;51.336;12.340;2022-07-17T07:27:37;3.08;;;1.55;;
2061;SDS011;11070;51.336;12.340;2022-07-17T07:30:03;2.37;;;1.77;;
2061;SDS011;11070;51.336;12.340;2022-07-17T07:32:29;2.43;;;1.30;;
2061;SDS011;11070;51.336;12.340;2022-07-17T07:34:54;1.57;;;1.40;;
2061;SDS011;11070;51.336;12.340;2022-07-17T07:37:20;6.60;;;1.63;;
2061;SDS011;11070;51.336;12.340;2022-07-17T07:39:46;3.33;;;1.40;;
2061;SDS011;11070;51.336;12.340;2022-07-17T07:42:11;2.50;;;1.40;;
2061;SDS011;11070;51.336;12.340;2022-07-17T07:44:37;3.97;;;2.10;;
2061;SDS011;11070;51.336;12.340;2022-07-17T07:47:02;4.67;;;1.53;;
2061;SDS011;11070;51.336;12.340;2022-07-17T07:49:28;4.47;;;2.07;;
2061;SDS011;11070;51.336;12.340;2022-07-17T07:51:54;6.57;;;1.87;;
2061;SDS011;11070;51.336;12.340;2022-07-17T07:54:20;4.50;;;1.77;;
2061;SDS011;11070;51.336;12.340;2022-07-17T07:56:46;4.70;;;1.83;;
2061;SDS011;11070;51.336;12.340;2022-07-17T07:59:11;3.43;;;1.60;;
2061;SDS011;11070;51.336;12.340;2022-07-17T08:01:37;3.83;;;1.50;;
2061;SDS011;11070;51.336;12.340;2022-07-17T08:04:03;3.77;;;2.10;;
2061;SDS011;11070;51.336;12.340;2022-07-17T08:06:29;3.08;;;1.98;;
2061;SDS011;11070;51.336;12.340;2022-07-17T08:08:54;7.17;;;1.40;;
2061;SDS011;11070;51.336;12.340;2022-07-17T08:11:20;2.07;;;1.60;;
2061;SDS011;11070;51.336;12.340;2022-07-17T08:13:46;3.00;;;1.80;;
2061;SDS011;11070;51.336;12.340;2022-07-17T08:16:12;3.77;;;1.63;;
2061;SDS011;11070;51.336;12.340;2022-07-17T08:18:37;3.13;;;1.80;;
2061;SDS011;11070;51.336;12.340;2022-07-17T08:21:03;3.50;;;1.90;;
2061;SDS011;11070;51.336;12.340;2022-07-17T08:23:29;5.53;;;1.63;;
2061;SDS011;11070;51.336;12.340;2022-07-17T08:25:55;3.87;;;1.80;;
2061;SDS011;11070;51.336;12.340;2022-07-17T08:28:20;5.20;;;2.07;;
2061;SDS011;11070;51.336;12.340;2022-07-17T08:30:46;2.03;;;1.50;;
2061;SDS011;11070;51.336;12.340;2022-07-17T08:33:11;5.97;;;1.90;;
2061;SDS011;11070;51.336;12.340;2022-07-17T08:35:39;3.22;;;2.20;;
2061;SDS011;11070;51.336;12.340;2022-07-17T08:38:05;3.07;;;1.67;;
2061;SDS011;11070;51.336;12.340;2022-07-17T08:40:33;2.57;;;1.40;;
2061;SDS011;11070;51.336;12.340;2022-07-17T08:43:00;2.72;;;1.50;;
2061;SDS011;11070;51.336;12.340;2022-07-17T08:45:29;3.22;;;1.88;;
2061;SDS011;11070;51.336;12.340;2022-07-17T08:47:56;4.28;;;1.40;;
2061;SDS011;11070;51.336;12.340;2022-07-17T08:50:26;2.55;;;1.60;;
2061;SDS011;11070;51.336;12.340;2022-07-17T08:52:56;3.78;;;1.42;;
2061;SDS011;11070;51.336;12.340;2022-07-17T08:55:22;1.92;;;1.58;;
2061;SDS011;11070;51.336;12.340;2022-07-17T08:57:48;3.65;;;1.50;;
2061;SDS011;11070;51.336;12.340;2022-07-17T09:00:15;1.80;;;1.33;;
2061;SDS011;11070;51.336;12.340;2022-07-17T09:02:57;2.70;;;1.75;;
2061;SDS011;11070;51.336;12.340;2022-07-17T09:05:25;3.28;;;1.65;;
2061;SDS011;11070;51.336;12.340;2022-07-17T09:07:53;2.95;;;1.45;;
2061;SDS011;11070;51.336;12.340;2022-07-17T09:10:18;3.10;;;1.60;;
2061;SDS011;11070;51.336;12.340;2022-07-17T09:12:58;1.80;;;1.25;;
2061;SDS011;11070;51.336;12.340;2022-07-17T09:15:25;4.43;;;1.80;;
2061;SDS011;11070;51.336;12.340;2022-07-17T09:17:52;3.53;;;2.00;;
2061;SDS011;11070;51.336;12.340;2022-07-17T09:20:21;4.53;;;2.00;;
2061;SDS011;11070;51.336;12.340;2022-07-17T09:28:06;1.90;;;1.43;;
2061;SDS011;11070;51.336;12.340;2022-07-17T09:30:34;2.60;;;1.50;;
2061;SDS011;11070;51.336;12.340;2022-07-17T09:33:02;3.87;;;1.90;;
2061;SDS011;11070;51.336;12.340;2022-07-17T09:35:31;2.57;;;1.53;;
2061;SDS011;11070;51.336;12.340;2022-07-17T09:37:57;6.97;;;2.00;;
2061;SDS011;11070;51.336;12.340;2022-07-17T09:40:23;2.13;;;1.47;;
2061;SDS011;11070;51.336;12.340;2022-07-17T09:43:07;3.53;;;2.20;;
2061;SDS011;11070;51.336;12.340;2022-07-17T09:45:34;3.53;;;3.23;;
2061;SDS011;11070;51.336;12.340;2022-07-17T09:48:00;3.70;;;1.40;;
2061;SDS011;11070;51.336;12.340;2022-07-17T09:50:27;1.90;;;1.60;;
2061;SDS011;11070;51.336;12.340;2022-07-17T09:52:55;2.00;;;1.30;;
2061;SDS011;11070;51.336;12.340;2022-07-17T09:55:22;2.80;;;1.20;;
2061;SDS011;11070;51.336;12.340;2022-07-17T09:57:56;3.10;;;1.30;;
2061;SDS011;11070;51.336;12.340;2022-07-17T10:00:25;2.70;;;1.50;;
2061;SDS011;11070;51.336;12.340;2022-07-17T10:02:51;2.80;;;1.50;;
2061;SDS011;11070;51.336;12.340;2022-07-17T10:05:17;2.43;;;1.30;;
2061;SDS011;11070;51.336;12.340;2022-07-17T10:07:43;2.13;;;1.43;;
2061;SDS011;11070;51.336;12.340;2022-07-17T10:10:10;2.07;;;1.40;;
2061;SDS011;11070;51.336;12.340;2022-07-17T10:12:38;3.80;;;1.23;;
2061;SDS011;11070;51.336;12.340;2022-07-17T10:15:06;1.50;;;1.10;;
2061;SDS011;11070;51.336;12.340;2022-07-17T10:17:34;2.73;;;1.50;;
2061;SDS011;11070;51.336;12.340;2022-07-17T10:20:00;4.50;;;1.50;;
2061;SDS011;11070;51.336;12.340;2022-07-17T10:22:28;3.40;;;1.50;;
2061;SDS011;11070;51.336;12.340;2022-07-17T10:25:07;2.33;;;1.40;;
2061;SDS011;11070;51.336;12.340;2022-07-17T10:27:36;3.10;;;1.27;;
2061;SDS011;11070;51.336;12.340;2022-07-17T10:30:10;3.47;;;2.10;;
2061;SDS011;11070;51.336;12.340;2022-07-17T10:32:37;3.77;;;1.40;;
2061;SDS011;11070;51.336;12.340;2022-07-17T10:35:05;3.63;;;1.40;;
2061;SDS011;11070;51.336;12.340;2022-07-17T10:40:10;2.87;;;2.07;;
2061;SDS011;11070;51.336;12.340;2022-07-17T10:50:48;3.37;;;1.53;;
2061;SDS011;11070;51.336;12.340;2022-07-17T10:53:22;3.47;;;1.20;;
2061;SDS011;11070;51.336;12.340;2022-07-17T10:56:00;2.90;;;1.33;;
2061;SDS011;11070;51.336;12.340;2022-07-17T10:58:40;3.30;;;1.23;;
2061;SDS011;11070;51.336;12.340;2022-07-17T11:01:14;1.60;;;1.07;;
2061;SDS011;11070;51.336;12.340;2022-07-17T11:03:42;3.00;;;1.00;;
2061;SDS011;11070;51.336;12.340;2022-07-17T11:06:13;4.50;;;2.00;;
2061;SDS011;11070;51.336;12.340;2022-07-17T11:08:41;2.67;;;1.30;;
2061;SDS011;11070;51.336;12.340;2022-07-17T11:11:09;2.87;;;2.17;;
2061;SDS011;11070;51.336;12.340;2022-07-17T11:13:35;4.53;;;1.30;;
2061;SDS011;11070;51.336;12.340;2022-07-17T11:16:00;4.33;;;1.40;;
2061;SDS011;11070;51.336;12.340;2022-07-17T11:18:26;3.93;;;1.37;;
2061;SDS011;11070;51.336;12.340;2022-07-17T11:20:59;2.53;;;1.37;;
2061;SDS011;11070;51.336;12.340;2022-07-17T11:23:26;2.17;;;1.40;;
2061;SDS011;11070;51.336;12.340;2022-07-17T11:25:58;2.20;;;1.63;;
2061;SDS011;11070;51.336;12.340;2022-07-17T11:28:37;6.20;;;1.27;;
2061;SDS011;11070;51.336;12.340;2022-07-17T11:31:41;3.00;;;1.63;;
2061;SDS011;11070;51.336;12.340;2022-07-17T11:34:04;2.53;;;1.63;;
2061;SDS011;11070;51.336;12.340;2022-07-17T11:39:05;2.70;;;1.30;;
2061;SDS011;11070;51.336;12.340;2022-07-17T11:41:38;3.37;;;2.00;;
2061;SDS011;11070;51.336;12.340;2022-07-17T11:44:06;3.00;;;1.10;;
2061;SDS011;11070;51.336;12.340;2022-07-17T11:46:39;5.23;;;4.73;;
2061;SDS011;11070;51.336;12.340;2022-07-17T11:49:06;2.10;;;1.90;;
2061;SDS011;11070;51.336;12.340;2022-07-17T11:51:42;1.93;;;1.40;;
2061;SDS011;11070;51.336;12.340;2022-07-17T11:54:13;2.13;;;1.37;;
2061;SDS011;11070;51.336;12.340;2022-07-17T11:56:41;1.87;;;0.97;;
2061;SDS011;11070;51.336;12.340;2022-07-17T11:59:09;4.53;;;1.17;;
2061;SDS011;11070;51.336;12.340;2022-07-17T12:01:44;3.23;;;1.63;;
2061;SDS011;11070;51.336;12.340;2022-07-17T12:04:11;1.60;;;1.47;;
2061;SDS011;11070;51.336;12.340;2022-07-17T12:06:39;2.00;;;1.33;;
2061;SDS011;11070;51.336;12.340;2022-07-17T12:09:05;2.67;;;1.20;;
2061;SDS011;11070;51.336;12.340;2022-07-17T12:11:32;2.13;;;1.80;;
2061;SDS011;11070;51.336;12.340;2022-07-17T12:14:09;5.67;;;4.50;;
2061;SDS011;11070;51.336;12.340;2022-07-17T12:16:35;7.20;;;5.90;;
2061;SDS011;11070;51.336;12.340;2022-07-17T12:19:07;10.27;;;9.03;;
2061;SDS011;11070;51.336;12.340;2022-07-17T12:24:18;5.00;;;4.50;;
2061;SDS011;11070;51.336;12.340;2022-07-17T12:26:55;3.40;;;2.57;;
2061;SDS011;11070;51.336;12.340;2022-07-17T12:29:22;2.80;;;2.60;;
2061;SDS011;11070;51.336;12.340;2022-07-17T12:31:49;2.50;;;2.13;;
2061;SDS011;11070;51.336;12.340;2022-07-17T12:34:27;3.27;;;2.47;;
2061;SDS011;11070;51.336;12.340;2022-07-17T12:36:53;3.20;;;2.10;;
2061;SDS011;11070;51.336;12.340;2022-07-17T12:39:19;1.90;;;1.67;;
2061;SDS011;11070;51.336;12.340;2022-07-17T12:41:44;2.30;;;2.10;;
2061;SDS011;11070;51.336;12.340;2022-07-17T12:44:10;2.87;;;2.67;;
2061;SDS011;11070;51.336;12.340;2022-07-17T12:46:36;2.20;;;1.30;;
2061;SDS011;11070;51.336;12.340;2022-07-17T12:49:01;1.50;;;1.40;;
2061;SDS011;11070;51.336;12.340;2022-07-17T12:51:27;2.07;;;1.40;;
2061;SDS011;11070;51.336;12.340;2022-07-17T12:53:53;1.83;;;1.00;;
2061;SDS011;11070;51.336;12.340;2022-07-17T12:56:18;1.87;;;1.03;;
2061;SDS011;11070;51.336;12.340;2022-07-17T12:58:44;1.47;;;1.20;;
2061;SDS011;11070;51.336;12.340;2022-07-17T13:01:10;4.47;;;0.97;;
2061;SDS011;11070;51.336;12.340;2022-07-17T13:03:36;1.77;;;1.20;;
2061;SDS011;11070;51.336;12.340;2022-07-17T13:06:03;1.37;;;1.00;;
2061;SDS011;11070;51.336;12.340;2022-07-17T13:08:29;4.50;;;1.97;;
2061;SDS011;11070;51.336;12.340;2022-07-17T13:10:55;1.57;;;1.47;;
2061;SDS011;11070;51.336;12.340;2022-07-17T13:13:21;2.53;;;2.33;;
2061;SDS011;11070;51.336;12.340;2022-07-17T13:15:47;2.83;;;2.53;;
2061;SDS011;11070;51.336;12.340;2022-07-17T13:18:13;3.63;;;2.07;;
2061;SDS011;11070;51.336;12.340;2022-07-17T13:20:39;1.80;;;1.70;;
2061;SDS011;11070;51.336;12.340;2022-07-17T13:23:05;3.20;;;0.90;;
2061;SDS011;11070;51.336;12.340;2022-07-17T13:25:31;1.77;;;1.47;;
2061;SDS011;11070;51.336;12.340;2022-07-17T13:27:57;1.83;;;1.10;;
2061;SDS011;11070;51.336;12.340;2022-07-17T13:30:23;2.30;;;1.37;;
2061;SDS011;11070;51.336;12.340;2022-07-17T13:32:49;1.90;;;1.10;;
2061;SDS011;11070;51.336;12.340;2022-07-17T13:35:14;1.00;;;0.90;;
2061;SDS011;11070;51.336;12.340;2022-07-17T13:37:42;3.30;;;1.30;;
2061;SDS011;11070;51.336;12.340;2022-07-17T13:40:09;1.37;;;1.10;;
2061;SDS011;11070;51.336;12.340;2022-07-17T13:42:35;3.50;;;1.27;;
2061;SDS011;11070;51.336;12.340;2022-07-17T13:45:01;4.27;;;1.30;;
2061;SDS011;11070;51.336;12.340;2022-07-17T13:47:27;1.37;;;1.27;;
2061;SDS011;11070;51.336;12.340;2022-07-17T13:49:53;2.50;;;1.27;;
2061;SDS011;11070;51.336;12.340;2022-07-17T13:52:19;1.20;;;1.00;;
2061;SDS011;11070;51.336;12.340;2022-07-17T13:54:45;1.47;;;1.10;;
2061;SDS011;11070;51.336;12.340;2022-07-17T13:57:10;4.63;;;1.67;;
2061;SDS011;11070;51.336;12.340;2022-07-17T13:59:36;3.27;;;1.50;;
2061;SDS011;11070;51.336;12.340;2022-07-17T14:02:01;1.63;;;1.13;;
2061;SDS011;11070;51.336;12.340;2022-07-17T14:04:27;2.33;;;1.40;;
2061;SDS011;11070;51.336;12.340;2022-07-17T14:06:53;1.30;;;1.20;;
2061;SDS011;11070;51.336;12.340;2022-07-17T14:09:19;2.07;;;1.43;;
2061;SDS011;11070;51.336;12.340;2022-07-17T14:11:45;2.13;;;0.90;;
2061;SDS011;11070;51.336;12.340;2022-07-17T14:14:11;4.60;;;1.70;;
2061;SDS011;11070;51.336;12.340;2022-07-17T14:16:36;1.73;;;1.30;;
2061;SDS011;11070;51.336;12.340;2022-07-17T14:19:02;1.33;;;1.20;;
2061;SDS011;11070;51.336;12.340;2022-07-17T14:21:28;1.60;;;1.10;;
2061;SDS011;11070;51.336;12.340;2022-07-17T14:23:56;4.70;;;1.50;;
2061;SDS011;11070;51.336;12.340;2022-07-17T14:26:22;2.23;;;1.50;;
2061;SDS011;11070;51.336;12.340;2022-07-17T14:28:48;3.07;;;1.17;;
2061;SDS011;11070;51.336;12.340;2022-07-17T14:31:14;2.47;;;1.30;;
2061;SDS011;11070;51.336;12.340;2022-07-17T14:33:41;4.37;;;1.20;;
2061;SDS011;11070;51.336;12.340;2022-07-17T14:36:08;4.70;;;1.50;;
2061;SDS011;11070;51.336;12.340;2022-07-17T14:38:34;1.67;;;1.47;;
2061;SDS011;11070;51.336;12.340;2022-07-17T14:41:00;1.77;;;1.23;;
2061;SDS011;11070;51.336;12.340;2022-07-17T14:43:26;2.33;;;1.43;;
2061;SDS011;11070;51.336;12.340;2022-07-17T14:45:52;2.17;;;1.23;;
2061;SDS011;11070;51.336;12.340;2022-07-17T14:48:17;3.73;;;1.13;;
2061;SDS011;11070;51.336;12.340;2022-07-17T14:50:43;4.17;;;1.30;;
2061;SDS011;11070;51.336;12.340;2022-07-17T14:53:08;1.77;;;1.20;;
2061;SDS011;11070;51.336;12.340;2022-07-17T14:55:34;2.40;;;1.17;;
2061;SDS011;11070;51.336;12.340;2022-07-17T14:58:00;2.50;;;1.50;;
2061;SDS011;11070;51.336;12.340;2022-07-17T15:00:25;4.30;;;1.77;;
2061;SDS011;11070;51.336;12.340;2022-07-17T15:02:51;1.77;;;1.67;;
2061;SDS011;11070;51.336;12.340;2022-07-17T15:05:17;3.20;;;1.40;;
2061;SDS011;11070;51.336;12.340;2022-07-17T15:07:42;4.70;;;1.30;;